Time;durP1;ratioP1;P1;durP2;ratioP2;P2;SDS_P1;SDS_P2;PMS_P1;PMS_P2;Temp;Humidity;BMP_temperature;BMP_pressure;BME280_temperature;BME280_humidity;BME280_pressure;Samples;Min_cycle;Max_cycle;Signal;HPM_P1;HPM_P2
2022/03/19 00:01:56;;;;;;;13.45;9.23;;;19.10;49.70;;;;;;5077372;28;20033;-69
2022/03/19 00:04:22;;;;;;;15.60;9.82;;;19.10;49.70;;;;;;5077449;28;20095;-68
2022/03/19 00:06:48;;;;;;;17.33;9.93;;;19.10;49.70;;;;;;5077331;28;20041;-70
2022/03/19 00:09:14;;;;;;;18.20;8.88;;;19.00;49.50;;;;;;5077004;28;20037;-70
2022/03/19 00:11:41;;;;;;;16.10;9.40;;;19.10;49.40;;;;;;5077071;28;20081;-70
2022/03/19 00:14:11;;;;;;;16.63;9.90;;;19.10;49.30;;;;;;5076567;28;20036;-69
2022/03/19 00:16:38;;;;;;;17.35;9.70;;;19.00;49.20;;;;;;5077080;28;20056;-69
2022/03/19 00:19:05;;;;;;;12.23;7.95;;;19.00;49.20;;;;;;5077085;28;20045;-70
2022/03/19 00:21:34;;;;;;;12.95;7.78;;;19.00;49.20;;;;;;5076917;28;20045;-69
2022/03/19 00:24:02;;;;;;;14.45;8.77;;;19.00;49.20;;;;;;5077201;28;20036;-69
2022/03/19 00:26:30;;;;;;;17.15;9.23;;;19.00;49.20;;;;;;5077044;28;20055;-71
2022/03/19 00:28:56;;;;;;;21.42;10.80;;;19.00;49.70;;;;;;5076182;28;20055;-70
2022/03/19 00:31:22;;;;;;;20.95;10.00;;;19.00;49.30;;;;;;5075934;28;20028;-69
2022/03/19 00:33:48;;;;;;;20.55;10.40;;;19.10;49.40;;;;;;5077026;28;20044;-69
2022/03/19 00:36:14;;;;;;;22.40;10.23;;;19.00;49.30;;;;;;5076612;28;20075;-69
2022/03/19 00:38:41;;;;;;;16.48;9.00;;;19.00;49.20;;;;;;5075960;28;20060;-69
2022/03/19 00:41:08;;;;;;;15.73;9.27;;;19.00;49.00;;;;;;5076132;28;20084;-69
2022/03/19 00:43:36;;;;;;;15.60;9.15;;;19.10;49.00;;;;;;5076372;28;20047;-68
2022/03/19 00:46:02;;;;;;;16.80;10.13;;;19.10;48.90;;;;;;5076217;28;20051;-69
2022/03/19 00:48:28;;;;;;;22.23;10.52;;;19.00;48.70;;;;;;5076660;28;20063;-70
2022/03/19 00:50:55;;;;;;;17.00;9.18;;;19.00;48.60;;;;;;5075927;28;20068;-70
2022/03/19 00:53:21;;;;;;;17.55;9.65;;;19.00;48.50;;;;;;5076764;28;20036;-69
2022/03/19 00:55:47;;;;;;;18.02;9.73;;;19.00;48.60;;;;;;5076450;28;20075;-70
2022/03/19 00:58:13;;;;;;;18.33;11.02;;;18.90;48.80;;;;;;5076339;28;20051;-70
2022/03/19 01:00:40;;;;;;;18.60;10.88;;;18.90;49.10;;;;;;5076212;28;20116;-70
2022/03/19 01:03:06;;;;;;;16.65;9.50;;;19.00;49.20;;;;;;5076537;28;20067;-69
2022/03/19 01:05:32;;;;;;;14.55;9.27;;;18.90;49.20;;;;;;5076325;28;20059;-69
2022/03/19 01:07:58;;;;;;;15.05;8.93;;;18.90;49.20;;;;;;5076310;28;20044;-70
2022/03/19 01:10:27;;;;;;;18.25;9.85;;;18.70;49.10;;;;;;5076239;28;20068;-69
2022/03/19 01:12:55;;;;;;;22.45;9.68;;;18.80;49.10;;;;;;5076428;28;20049;-69
2022/03/19 01:15:21;;;;;;;17.30;9.50;;;18.70;49.10;;;;;;5076345;28;20059;-71
2022/03/19 01:17:48;;;;;;;21.08;9.25;;;18.70;49.20;;;;;;5076142;28;20055;-69
2022/03/19 01:20:15;;;;;;;19.38;10.32;;;18.60;49.00;;;;;;5076122;28;20087;-69
2022/03/19 01:22:43;;;;;;;24.33;10.65;;;18.50;49.10;;;;;;5108986;28;20048;-70
2022/03/19 01:25:11;;;;;;;20.60;10.73;;;18.50;49.00;;;;;;5076219;28;20045;-69
2022/03/19 01:27:39;;;;;;;15.65;9.77;;;18.60;48.60;;;;;;5075677;28;20049;-68
2022/03/19 01:30:08;;;;;;;18.88;9.07;;;18.70;48.60;;;;;;5076024;28;20037;-69
2022/03/19 01:32:37;;;;;;;16.75;9.15;;;18.70;48.40;;;;;;5076122;28;20041;-69
2022/03/19 01:35:04;;;;;;;15.90;9.32;;;18.70;48.30;;;;;;5076205;28;20068;-70
2022/03/19 01:37:30;;;;;;;17.63;8.85;;;18.80;48.20;;;;;;5076269;28;20100;-69
2022/03/19 01:39:57;;;;;;;15.25;9.18;;;18.70;48.00;;;;;;5075741;28;20510;-69
2022/03/19 01:42:25;;;;;;;16.67;10.38;;;18.70;47.80;;;;;;5075430;28;20041;-69
2022/03/19 01:44:52;;;;;;;17.00;9.75;;;18.80;47.80;;;;;;5076306;28;20109;-69
2022/03/19 01:47:18;;;;;;;18.55;10.45;;;18.80;47.70;;;;;;5076088;28;20037;-69
2022/03/19 01:49:46;;;;;;;19.50;9.73;;;18.70;47.70;;;;;;5075396;28;20088;-69
2022/03/19 01:52:12;;;;;;;16.48;9.10;;;18.70;47.70;;;;;;5075964;28;20033;-69
2022/03/19 01:54:41;;;;;;;20.13;9.18;;;18.70;47.80;;;;;;5075874;28;20036;-69
2022/03/19 01:57:10;;;;;;;16.48;9.20;;;18.60;48.00;;;;;;5076062;28;20037;-70
2022/03/19 01:59:37;;;;;;;15.13;9.18;;;18.70;48.00;;;;;;5061741;28;20057;-69
2022/03/19 02:02:07;;;;;;;14.73;9.30;;;18.50;48.00;;;;;;5078835;28;20041;-69
2022/03/19 02:04:35;;;;;;;16.77;9.25;;;18.60;48.20;;;;;;5079938;28;20041;-69
2022/03/19 02:07:01;;;;;;;22.85;10.48;;;18.50;48.20;;;;;;5078837;28;20033;-69
2022/03/19 02:09:29;;;;;;;19.15;9.77;;;18.60;48.30;;;;;;5078929;28;20036;-69
2022/03/19 02:11:55;;;;;;;23.15;9.95;;;18.50;48.30;;;;;;5079484;28;20037;-69
2022/03/19 02:14:22;;;;;;;17.75;10.23;;;18.40;48.20;;;;;;5079436;28;20049;-72
2022/03/19 02:16:49;;;;;;;23.50;10.25;;;18.40;48.20;;;;;;5079526;28;20029;-69
2022/03/19 02:19:16;;;;;;;14.05;9.57;;;18.50;48.30;;;;;;5079384;28;20129;-69
2022/03/19 02:21:45;;;;;;;17.23;10.02;;;18.40;48.00;;;;;;5079063;28;20112;-70
2022/03/19 02:26:58;;;;;;;16.30;9.02;;;18.40;47.70;;;;;;5079443;28;20041;-69
2022/03/19 02:29:24;;;;;;;19.63;9.55;;;18.40;47.50;;;;;;5078421;28;20041;-71
2022/03/19 02:31:54;;;;;;;18.27;9.32;;;18.50;47.70;;;;;;5079038;28;20049;-69
2022/03/19 02:34:20;;;;;;;15.23;9.00;;;18.40;47.70;;;;;;5078657;28;20032;-69
2022/03/19 02:36:47;;;;;;;15.95;9.60;;;18.40;47.90;;;;;;5079023;28;20045;-69
2022/03/19 02:39:16;;;;;;;17.70;8.77;;;18.50;47.90;;;;;;5079099;28;20048;-69
2022/03/19 02:41:48;;;;;;;19.58;9.32;;;18.40;47.50;;;;;;5078916;28;20037;-69
2022/03/19 02:44:18;;;;;;;18.60;10.15;;;18.30;47.50;;;;;;5079021;28;20053;-69
2022/03/19 02:46:53;;;;;;;18.35;10.13;;;18.30;47.30;;;;;;5079096;28;20037;-70
2022/03/19 02:49:21;;;;;;;13.73;8.80;;;18.40;47.20;;;;;;5078762;28;20041;-70
2022/03/19 02:51:50;;;;;;;14.15;8.85;;;18.40;47.00;;;;;;5077986;28;20118;-70
2022/03/19 02:54:19;;;;;;;17.00;9.18;;;18.50;47.00;;;;;;5078510;28;20041;-69
2022/03/19 02:56:46;;;;;;;14.38;9.20;;;18.40;46.80;;;;;;5077786;28;20068;-70
2022/03/19 02:59:20;;;;;;;18.83;10.02;;;18.40;46.70;;;;;;5078302;28;20080;-69
2022/03/19 03:01:49;;;;;;;23.45;11.07;;;18.50;47.00;;;;;;5078550;28;20060;-69
2022/03/19 03:04:16;;;;;;;19.25;10.50;;;18.40;47.00;;;;;;5078658;28;20057;-69
2022/03/19 03:06:45;;;;;;;13.93;9.20;;;18.30;47.20;;;;;;5078545;28;20048;-69
2022/03/19 03:09:12;;;;;;;16.30;9.48;;;18.40;47.30;;;;;;5078211;28;20052;-69
2022/03/19 03:11:39;;;;;;;15.35;9.93;;;18.30;47.40;;;;;;5078117;28;20045;-69
2022/03/19 03:14:10;;;;;;;17.70;9.77;;;18.30;47.60;;;;;;5078385;28;20048;-69
2022/03/19 03:16:38;;;;;;;21.85;10.32;;;18.30;47.50;;;;;;5077714;28;20056;-69
2022/03/19 03:19:06;;;;;;;18.95;9.48;;;18.20;47.50;;;;;;5077987;28;20045;-69
2022/03/19 03:21:35;;;;;;;19.25;9.88;;;18.20;47.40;;;;;;5077349;28;20041;-70
2022/03/19 03:24:03;;;;;;;14.35;9.52;;;18.20;47.50;;;;;;5078131;28;20073;-69
2022/03/19 03:26:30;;;;;;;15.70;8.75;;;18.10;47.50;;;;;;5077998;28;20071;-70
2022/03/19 03:28:57;;;;;;;16.38;10.05;;;18.10;47.50;;;;;;5078180;28;20040;-69
2022/03/19 03:31:25;;;;;;;18.75;9.85;;;18.10;47.40;;;;;;5110635;28;20039;-69
2022/03/19 03:33:52;;;;;;;21.15;10.48;;;18.10;47.20;;;;;;5078207;28;20036;-70
2022/03/19 03:36:18;;;;;;;18.27;9.70;;;18.20;47.10;;;;;;5078036;28;20087;-69
2022/03/19 03:38:44;;;;;;;17.90;9.82;;;18.10;47.00;;;;;;5077851;28;20040;-69
2022/03/19 03:41:10;;;;;;;16.02;10.07;;;18.00;46.90;;;;;;5077751;28;20037;-69
2022/03/19 03:43:37;;;;;;;18.83;10.43;;;18.00;46.90;;;;;;5077696;28;20175;-69
2022/03/19 03:46:04;;;;;;;17.50;10.05;;;18.00;47.10;;;;;;5077612;28;20061;-69
2022/03/19 03:48:34;;;;;;;14.43;9.38;;;18.00;47.10;;;;;;5077756;28;20071;-69
2022/03/19 03:51:01;;;;;;;16.77;10.43;;;18.10;46.90;;;;;;5077784;28;20049;-69
2022/03/19 03:53:29;;;;;;;17.13;10.77;;;18.20;46.70;;;;;;5077477;28;20063;-70
2022/03/19 03:55:55;;;;;;;24.52;13.90;;;18.10;46.60;;;;;;5077631;28;20055;-70
2022/03/19 03:58:23;;;;;;;20.63;12.38;;;18.20;46.40;;;;;;5076950;28;20037;-70
2022/03/19 04:00:51;;;;;;;18.15;10.93;;;18.10;46.40;;;;;;5077240;28;20063;-69
2022/03/19 04:03:17;;;;;;;15.68;9.05;;;18.10;46.30;;;;;;5077425;28;20071;-69
2022/03/19 04:05:43;;;;;;;14.85;10.00;;;18.20;46.20;;;;;;5077330;28;20098;-69
2022/03/19 04:08:09;;;;;;;21.90;10.35;;;18.20;46.20;;;;;;5077309;28;20056;-70
2022/03/19 04:10:36;;;;;;;17.05;9.93;;;18.20;46.30;;;;;;5077264;28;20037;-69
2022/03/19 04:13:02;;;;;;;19.42;10.98;;;18.10;46.50;;;;;;5077225;28;20045;-68
2022/03/19 04:15:29;;;;;;;21.83;11.00;;;18.10;46.60;;;;;;5077348;28;20037;-69
2022/03/19 04:17:55;;;;;;;18.48;11.02;;;18.10;46.70;;;;;;5076586;28;20021;-70
2022/03/19 04:20:22;;;;;;;18.42;10.80;;;18.10;46.80;;;;;;5076000;28;20041;-69
2022/03/19 04:22:49;;;;;;;17.67;10.75;;;18.10;46.90;;;;;;5076850;28;20066;-70
2022/03/19 04:25:19;;;;;;;16.33;10.23;;;18.10;46.90;;;;;;5076864;28;20048;-70
2022/03/19 04:27:47;;;;;;;22.42;11.95;;;17.90;46.80;;;;;;5076981;28;20037;-69
2022/03/19 04:30:16;;;;;;;19.75;10.45;;;18.00;46.90;;;;;;5076991;28;20040;-69
2022/03/19 04:32:46;;;;;;;18.05;10.85;;;18.00;46.80;;;;;;5076830;28;20128;-70
2022/03/19 04:38:18;;;;;;;20.20;10.68;;;17.90;46.80;;;;;;5076751;28;20040;-70
2022/03/19 04:40:47;;;;;;;20.25;10.55;;;17.90;46.60;;;;;;5076724;28;20041;-69
2022/03/19 04:43:13;;;;;;;23.85;10.35;;;17.90;46.40;;;;;;5076536;28;20110;-69
2022/03/19 04:45:41;;;;;;;21.13;11.73;;;18.00;46.20;;;;;;5076848;28;20108;-69
2022/03/19 04:48:08;;;;;;;24.23;14.10;;;18.00;46.00;;;;;;5076603;28;20150;-69
2022/03/19 04:50:42;;;;;;;38.72;20.77;;;18.00;46.10;;;;;;5076636;28;20041;-69
2022/03/19 04:53:09;;;;;;;32.55;20.83;;;18.00;46.30;;;;;;5076568;28;20033;-70
2022/03/19 04:55:37;;;;;;;27.80;15.95;;;17.90;46.40;;;;;;5076549;28;20067;-69
2022/03/19 04:58:05;;;;;;;21.17;14.70;;;17.90;46.60;;;;;;5076423;28;20440;-70
2022/03/19 05:00:33;;;;;;;22.05;13.85;;;18.00;46.30;;;;;;5076314;28;20049;-70
2022/03/19 05:02:59;;;;;;;22.08;13.27;;;18.10;46.10;;;;;;5074613;28;20041;-69
2022/03/19 05:05:26;;;;;;;22.83;12.18;;;18.10;45.90;;;;;;5075205;28;20047;-70
2022/03/19 05:07:55;;;;;;;21.02;12.13;;;18.30;45.80;;;;;;5075678;28;20036;-70
2022/03/19 05:13:06;;;;;;;17.20;11.93;;;18.40;45.70;;;;;;5075631;28;20111;-69
2022/03/19 05:15:32;;;;;;;16.60;8.43;;;18.50;45.90;;;;;;5075735;28;20779;-70
2022/03/19 05:17:58;;;;;;;16.88;9.32;;;18.80;49.40;;;;;;5075732;28;20044;-70
2022/03/19 05:20:24;;;;;;;20.73;10.73;;;19.40;49.60;;;;;;5075703;28;20112;-69
2022/03/19 05:22:50;;;;;;;17.88;10.77;;;19.80;50.30;;;;;;5075634;28;20067;-69
2022/03/19 05:25:16;;;;;;;23.73;13.30;;;20.00;49.70;;;;;;5074976;28;20669;-68
2022/03/19 05:27:43;;;;;;;23.17;13.18;;;20.20;44.20;;;;;;5074828;28;20100;-69
2022/03/19 05:30:10;;;;;;;26.05;13.00;;;20.00;40.60;;;;;;5074768;28;20033;-69
2022/03/19 05:32:37;;;;;;;19.73;12.48;;;19.60;41.00;;;;;;5077325;28;20052;-69
2022/03/19 05:35:04;;;;;;;21.38;11.85;;;19.50;41.60;;;;;;5079604;28;20045;-69
2022/03/19 05:37:31;;;;;;;22.67;13.02;;;19.30;42.10;;;;;;5079362;28;20108;-70
2022/03/19 05:39:59;;;;;;;20.13;11.68;;;19.00;43.60;;;;;;5079369;28;20055;-70
2022/03/19 05:42:28;;;;;;;18.48;12.02;;;19.00;44.50;;;;;;5079282;28;20044;-70
2022/03/19 05:44:54;;;;;;;28.30;12.75;;;18.90;45.00;;;;;;5079255;28;20041;-69
2022/03/19 05:47:20;;;;;;;23.13;13.70;;;18.80;45.30;;;;;;5079584;28;20033;-70
2022/03/19 05:49:46;;;;;;;21.42;12.23;;;18.70;45.70;;;;;;5079210;28;20136;-69
2022/03/19 05:52:13;;;;;;;21.85;12.27;;;18.70;46.20;;;;;;5079351;28;20052;-68
2022/03/19 05:54:39;;;;;;;14.77;9.18;;;18.70;46.60;;;;;;5079462;28;20033;-68
2022/03/19 05:57:05;;;;;;;18.98;8.93;;;18.70;45.00;;;;;;5079185;28;20055;-68
2022/03/19 05:59:31;;;;;;;14.85;6.82;;;18.80;50.60;;;;;;5078341;28;20045;-68
2022/03/19 06:01:57;;;;;;;10.30;6.95;;;19.40;51.90;;;;;;5079151;28;20101;-69
2022/03/19 06:04:23;;;;;;;12.13;7.05;;;19.80;51.40;;;;;;5079005;28;20104;-69
2022/03/19 06:06:50;;;;;;;15.52;8.70;;;20.10;50.70;;;;;;5078333;28;20079;-69
2022/03/19 06:09:17;;;;;;;13.88;10.95;;;20.40;47.70;;;;;;5075455;28;20045;-69
2022/03/19 06:11:45;;;;;;;16.02;10.07;;;20.40;39.60;;;;;;5078483;28;20051;-66
2022/03/19 06:14:12;;;;;;;12.70;9.25;;;20.50;45.40;;;;;;5078320;28;20032;-68
2022/03/19 06:16:38;;;;;;;13.00;8.13;;;20.40;35.90;;;;;;5078391;28;20040;-69
2022/03/19 06:19:05;;;;;;;15.35;9.05;;;20.20;36.60;;;;;;5077676;28;20100;-68
2022/03/19 06:21:31;;;;;;;15.88;10.27;;;20.10;37.40;;;;;;5078152;28;20060;-70
2022/03/19 06:23:57;;;;;;;15.38;10.35;;;20.10;36.80;;;;;;5078200;28;20033;-67
2022/03/19 06:26:24;;;;;;;18.40;11.00;;;20.00;35.50;;;;;;5078067;28;20114;-71
2022/03/19 06:28:51;;;;;;;19.63;13.32;;;20.00;37.60;;;;;;5078264;28;20037;-69
2022/03/19 06:31:18;;;;;;;23.05;13.50;;;20.10;36.90;;;;;;5078025;28;20044;-68
2022/03/19 06:33:44;;;;;;;23.75;15.52;;;20.20;37.40;;;;;;5077852;28;20044;-70
2022/03/19 06:38:58;;;;;;;15.10;9.75;;;20.20;36.30;;;;;;5075332;28;20040;-68
2022/03/19 06:41:24;;;;;;;15.60;9.10;;;20.30;39.90;;;;;;5077457;28;20063;-69
2022/03/19 06:43:54;;;;;;;19.63;10.10;;;20.40;39.00;;;;;;5077122;28;20064;-68
2022/03/19 06:46:23;;;;;;;13.82;8.63;;;20.50;40.70;;;;;;5077877;28;20093;-69
2022/03/19 06:48:50;;;;;;;19.77;11.02;;;20.60;43.60;;;;;;5077068;28;20037;-71
2022/03/19 06:51:18;;;;;;;22.25;11.85;;;20.70;50.60;;;;;;5076838;28;20037;-70
2022/03/19 06:53:45;;;;;;;22.40;11.65;;;20.70;55.20;;;;;;5078228;28;20040;-70
2022/03/19 06:56:12;;;;;;;21.33;12.63;;;20.70;53.10;;;;;;5077768;28;20033;-70
2022/03/19 06:58:41;;;;;;;20.65;11.02;;;20.60;52.20;;;;;;5075970;28;20074;-69
2022/03/19 07:01:14;;;;;;;19.33;12.07;;;20.30;52.10;;;;;;5076368;28;20059;-69
2022/03/19 07:03:45;;;;;;;24.30;12.43;;;20.10;52.50;;;;;;5087936;28;20067;-69
2022/03/19 07:06:12;;;;;;;22.38;12.43;;;20.10;52.50;;;;;;5096893;28;20043;-70
2022/03/19 07:08:39;;;;;;;20.15;11.98;;;19.90;53.30;;;;;;5081350;28;20029;-69
2022/03/19 07:11:06;;;;;;;22.77;11.65;;;19.90;54.60;;;;;;5077396;28;20041;-69
2022/03/19 07:13:32;;;;;;;21.42;12.75;;;19.80;55.10;;;;;;5076781;28;20060;-70
2022/03/19 07:15:58;;;;;;;18.38;10.95;;;19.80;55.40;;;;;;5077196;28;20068;-69
2022/03/19 07:18:24;;;;;;;21.65;11.48;;;19.80;55.50;;;;;;5077663;28;20045;-70
2022/03/19 07:20:51;;;;;;;17.77;10.55;;;19.70;55.70;;;;;;5077517;28;20045;-70
2022/03/19 07:23:17;;;;;;;21.27;11.02;;;19.70;55.80;;;;;;5077053;28;20100;-69
2022/03/19 07:25:43;;;;;;;18.10;9.82;;;19.70;55.90;;;;;;5060177;28;20048;-68
2022/03/19 07:28:12;;;;;;;13.30;7.35;;;19.70;56.10;;;;;;5076690;28;20096;-70
2022/03/19 07:30:39;;;;;;;9.77;6.15;;;19.70;56.20;;;;;;5077239;28;20044;-71
2022/03/19 07:33:05;;;;;;;9.40;6.00;;;19.70;56.10;;;;;;5083794;28;20044;-69
2022/03/19 07:35:32;;;;;;;8.75;5.97;;;19.70;56.00;;;;;;5097348;28;20056;-69
2022/03/19 07:37:59;;;;;;;7.35;5.25;;;19.70;55.90;;;;;;5097278;28;20037;-70
2022/03/19 07:43:13;;;;;;;5.25;3.88;;;19.90;56.00;;;;;;5097119;28;20044;-69
2022/03/19 07:45:41;;;;;;;5.65;3.65;;;20.30;55.50;;;;;;5096308;28;20028;-68
2022/03/19 07:48:07;;;;;;;6.50;3.97;;;20.20;54.70;;;;;;5097019;28;20044;-69
2022/03/19 07:50:35;;;;;;;7.25;4.13;;;20.40;54.90;;;;;;5096202;28;20247;-68
2022/03/19 07:53:02;;;;;;;5.80;3.38;;;20.50;54.90;;;;;;5097037;28;20068;-68
2022/03/19 07:55:29;;;;;;;5.60;3.97;;;20.60;54.50;;;;;;5087942;28;20108;-69
2022/03/19 07:57:55;;;;;;;6.00;3.75;;;20.60;54.20;;;;;;5076752;28;20047;-68
2022/03/19 08:00:22;;;;;;;19.23;8.88;;;20.70;54.00;;;;;;5076399;28;20070;-68
2022/03/19 08:02:48;;;;;;;36.75;14.88;;;20.80;54.10;;;;;;5076763;28;20037;-69
2022/03/19 08:05:14;;;;;;;39.83;12.45;;;20.70;54.20;;;;;;5076433;28;20041;-69
2022/03/19 08:07:40;;;;;;;9.48;4.55;;;20.50;54.40;;;;;;5076703;28;20028;-69
2022/03/19 08:10:08;;;;;;;14.07;7.97;;;20.60;54.40;;;;;;5075813;28;20041;-69
2022/03/19 08:12:36;;;;;;;12.82;7.10;;;20.60;54.20;;;;;;5076268;28;20083;-70
2022/03/19 08:15:03;;;;;;;80.32;34.17;;;20.70;54.30;;;;;;5076442;28;20045;-69
2022/03/19 08:17:29;;;;;;;18.75;10.45;;;20.80;53.70;;;;;;5076389;28;20090;-69
2022/03/19 08:19:57;;;;;;;9.65;6.22;;;20.90;53.80;;;;;;5075970;28;20059;-70
2022/03/19 08:22:24;;;;;;;9.27;3.97;;;20.90;53.80;;;;;;5076572;28;20041;-69
2022/03/19 08:24:51;;;;;;;15.98;8.30;;;21.00;53.60;;;;;;5076178;28;20043;-69
2022/03/19 08:27:18;;;;;;;10.90;6.75;;;21.10;53.30;;;;;;5075993;28;20037;-69
2022/03/19 08:29:44;;;;;;;13.57;6.00;;;21.10;53.30;;;;;;5075949;28;20059;-69
2022/03/19 08:32:11;;;;;;;19.75;10.63;;;20.90;55.40;;;;;;5076188;28;20063;-69
2022/03/19 08:34:37;;;;;;;5.10;2.35;;;21.10;57.50;;;;;;5075436;28;20048;-70
2022/03/19 08:37:06;;;;;;;2.40;1.90;;;21.60;57.30;;;;;;5075100;28;20048;-69
2022/03/19 08:42:17;;;;;;;3.58;2.15;;;22.10;48.50;;;;;;5076270;28;20060;-70
2022/03/19 08:44:43;;;;;;;1.48;1.38;;;22.20;47.30;;;;;;5075401;28;20032;-69
2022/03/19 08:47:09;;;;;;;3.63;2.08;;;22.10;48.50;;;;;;5074686;28;20051;-70
2022/03/19 08:49:35;;;;;;;5.25;3.03;;;22.00;48.10;;;;;;5074569;28;20025;-70
2022/03/19 08:52:02;;;;;;;9.38;3.15;;;22.00;46.00;;;;;;5074637;28;20037;-71
2022/03/19 08:54:28;;;;;;;7.45;4.88;;;22.00;41.60;;;;;;5074959;28;20064;-69
2022/03/19 08:56:54;;;;;;;7.43;4.72;;;22.00;37.50;;;;;;5075209;28;20071;-69
2022/03/19 08:59:20;;;;;;;17.10;6.40;;;21.90;33.80;;;;;;5074927;28;20041;-70
2022/03/19 09:01:50;;;;;;;8.10;4.35;;;22.10;49.40;;;;;;5075654;28;20048;-71
2022/03/19 09:04:17;;;;;;;9.73;5.40;;;22.10;49.50;;;;;;5075498;28;20059;-70
2022/03/19 09:06:43;;;;;;;9.25;5.57;;;22.30;49.20;;;;;;5075159;28;20041;-70
2022/03/19 09:09:11;;;;;;;8.00;4.85;;;22.30;40.20;;;;;;5074239;28;20037;-70
2022/03/19 09:11:38;;;;;;;9.68;4.93;;;22.30;38.10;;;;;;5073780;28;20101;-71
2022/03/19 09:14:06;;;;;;;5.45;3.85;;;22.40;44.70;;;;;;5075784;28;20045;-69
2022/03/19 09:16:33;;;;;;;9.20;4.80;;;22.60;49.90;;;;;;5075292;28;20040;-70
2022/03/19 09:18:59;;;;;;;5.57;3.97;;;22.60;45.40;;;;;;5075659;28;20100;-71
2022/03/19 09:21:29;;;;;;;8.75;4.57;;;22.60;49.70;;;;;;5075656;28;20580;-72
2022/03/19 09:23:58;;;;;;;20.45;5.72;;;22.80;42.30;;;;;;5074641;28;20033;-71
2022/03/19 09:26:25;;;;;;;20.75;7.13;;;22.90;39.60;;;;;;5074759;28;20040;-69
2022/03/19 09:28:51;;;;;;;40.28;11.32;;;22.70;40.40;;;;;;5075166;28;20041;-72
2022/03/19 09:31:18;;;;;;;13.90;5.97;;;22.90;48.00;;;;;;5074878;28;20044;-71
2022/03/19 09:33:45;;;;;;;28.08;7.40;;;22.90;33.40;;;;;;5074593;28;20044;-71
2022/03/19 09:36:12;;;;;;;593.38;175.40;;;22.90;35.20;;;;;;5072536;28;20040;-71
2022/03/19 09:38:39;;;;;;;101.38;29.65;;;23.00;36.00;;;;;;5063341;28;20033;-70
2022/03/19 09:41:07;;;;;;;25.90;9.32;;;23.00;34.30;;;;;;5055250;28;20093;-71
2022/03/19 09:43:34;;;;;;;26.13;10.35;;;23.10;35.20;;;;;;5055419;28;20033;-72
2022/03/19 09:46:01;;;;;;;24.42;8.40;;;23.10;30.30;;;;;;5055497;28;20061;-70
2022/03/19 09:48:27;;;;;;;13.50;4.30;;;22.90;26.30;;;;;;5055614;28;20048;-69
2022/03/19 09:50:56;;;;;;;9.43;4.40;;;22.90;23.70;;;;;;5054602;28;20045;-70
2022/03/19 09:53:23;;;;;;;3.80;2.78;;;22.90;25.30;;;;;;5055368;28;20045;-70
2022/03/19 09:55:53;;;;;;;4.70;3.38;;;23.00;37.30;;;;;;5053409;28;20071;-70
2022/03/19 09:58:22;;;;;;;5.28;3.17;;;22.90;39.20;;;;;;5056737;28;20072;-72
2022/03/19 10:00:49;;;;;;;3.08;2.25;;;22.90;41.90;;;;;;5074321;28;20666;-71
2022/03/19 10:03:15;;;;;;;19.58;12.50;;;22.90;42.30;;;;;;5074963;28;20044;-71
2022/03/19 10:08:41;;;;;;;4.22;3.00;;;22.80;41.40;;;;;;5075050;28;20041;-72
2022/03/19 10:11:10;;;;;;;12.40;7.07;;;22.70;41.50;;;;;;5074752;28;20044;-72
2022/03/19 10:13:42;;;;;;;26.60;16.15;;;22.60;40.40;;;;;;5074559;28;20045;-71
2022/03/19 10:16:09;;;;;;;5.18;3.35;;;22.50;41.00;;;;;;5074911;28;20041;-72
2022/03/19 10:18:35;;;;;;;4.25;2.65;;;22.60;42.70;;;;;;5075234;28;20045;-71
2022/03/19 10:21:12;;;;;;;9.32;4.00;;;22.40;38.80;;;;;;5078333;28;20064;-71
2022/03/19 10:23:39;;;;;;;5.22;4.03;;;22.50;30.60;;;;;;5078856;28;20029;-70
2022/03/19 10:26:06;;;;;;;7.07;4.47;;;22.70;31.80;;;;;;5078564;28;20092;-71
2022/03/19 10:28:36;;;;;;;10.15;4.53;;;22.80;28.90;;;;;;5078225;28;20048;-71
2022/03/19 10:31:03;;;;;;;23.98;4.03;;;22.90;28.00;;;;;;5078067;28;20055;-72
2022/03/19 10:33:31;;;;;;;6.85;4.15;;;23.00;28.70;;;;;;5078592;28;20032;-71
2022/03/19 10:36:08;;;;;;;7.50;4.95;;;23.00;29.00;;;;;;5078395;28;20096;-71
2022/03/19 10:38:46;;;;;;;7.72;3.78;;;23.10;37.70;;;;;;5078551;28;20299;-70
2022/03/19 10:41:17;;;;;;;4.28;2.97;;;23.20;36.90;;;;;;5077965;28;20047;-72
2022/03/19 10:43:45;;;;;;;4.88;3.58;;;23.40;44.00;;;;;;5078324;28;20497;-72
2022/03/19 10:46:12;;;;;;;4.40;3.78;;;23.30;42.90;;;;;;5077446;28;20037;-72
2022/03/19 10:48:38;;;;;;;16.02;9.57;;;23.20;42.60;;;;;;5077969;28;20037;-70
2022/03/19 10:51:08;;;;;;;6.40;3.35;;;23.20;42.70;;;;;;5078028;28;20047;-71
2022/03/19 10:53:35;;;;;;;34.40;15.27;;;23.00;42.60;;;;;;5078064;28;20045;-71
2022/03/19 10:56:03;;;;;;;54.10;24.85;;;23.00;42.40;;;;;;5078332;28;20037;-71
2022/03/19 10:58:29;;;;;;;6.22;3.67;;;23.00;43.10;;;;;;5077488;28;20045;-72
2022/03/19 11:00:59;;;;;;;3.80;3.08;;;23.10;43.60;;;;;;5077395;28;20063;-72
2022/03/19 11:03:29;;;;;;;3.45;2.85;;;23.00;43.40;;;;;;5077450;28;20120;-71
2022/03/19 11:06:09;;;;;;;6.95;3.20;;;23.10;40.80;;;;;;5077827;28;20049;-72
2022/03/19 11:08:47;;;;;;;8.80;3.83;;;23.40;37.00;;;;;;5077663;28;20040;-71
2022/03/19 11:11:32;;;;;;;6.03;3.42;;;23.30;32.60;;;;;;5077318;28;20137;-71
2022/03/19 11:14:01;;;;;;;7.63;3.80;;;23.30;30.60;;;;;;5077428;28;20048;-70
2022/03/19 11:16:35;;;;;;;4.47;3.03;;;23.20;25.70;;;;;;5077635;28;20055;-72
2022/03/19 11:19:03;;;;;;;4.65;2.92;;;23.20;24.70;;;;;;5077717;28;20037;-70
2022/03/19 11:21:32;;;;;;;5.18;3.15;;;23.00;26.20;;;;;;5077542;28;20048;-70
2022/03/19 11:24:19;;;;;;;5.10;2.90;;;23.00;28.20;;;;;;5077738;28;20100;-70
2022/03/19 11:26:47;;;;;;;3.08;2.58;;;23.10;33.00;;;;;;5076866;28;20041;-72
2022/03/19 11:29:13;;;;;;;3.95;2.60;;;23.00;36.30;;;;;;5077534;28;20045;-72
2022/03/19 11:31:39;;;;;;;5.22;3.28;;;23.00;42.40;;;;;;5076600;28;20044;-72
2022/03/19 11:34:17;;;;;;;3.50;2.92;;;23.00;43.30;;;;;;5077663;28;20067;-72
2022/03/19 11:37:00;;;;;;;6.97;2.30;;;23.00;44.60;;;;;;5085414;28;20036;-71
2022/03/19 11:39:27;;;;;;;3.53;2.65;;;22.90;45.00;;;;;;5061384;28;20043;-72
2022/03/19 11:41:54;;;;;;;4.13;2.50;;;22.80;45.00;;;;;;5075966;28;20033;-70
2022/03/19 11:44:25;;;;;;;3.55;2.78;;;22.80;45.30;;;;;;5076611;28;20051;-70
2022/03/19 11:47:00;;;;;;;3.17;2.38;;;22.80;45.70;;;;;;5076512;28;20047;-71
2022/03/19 11:49:47;;;;;;;4.68;2.88;;;22.70;46.70;;;;;;5076982;28;20049;-73
2022/03/19 11:52:26;;;;;;;5.45;3.30;;;22.60;47.10;;;;;;5057014;28;20076;-71
2022/03/19 11:55:12;;;;;;;5.82;2.63;;;22.60;46.90;;;;;;5059349;28;20035;-70
2022/03/19 11:58:03;;;;;;;4.53;3.13;;;22.60;47.70;;;;;;5076734;28;20051;-71
2022/03/19 12:00:33;;;;;;;5.85;3.50;;;22.40;45.90;;;;;;5076426;28;20040;-70
2022/03/19 12:03:10;;;;;;;4.22;3.05;;;22.40;48.10;;;;;;5076717;28;20041;-71
2022/03/19 12:05:39;;;;;;;3.45;2.78;;;22.30;48.10;;;;;;5076870;28;20044;-70
2022/03/19 12:08:12;;;;;;;4.68;3.50;;;22.30;48.00;;;;;;5076892;28;20066;-70
2022/03/19 12:10:59;;;;;;;5.10;3.70;;;22.30;48.40;;;;;;5076267;28;20080;-72
2022/03/19 12:13:29;;;;;;;3.72;2.80;;;22.30;48.20;;;;;;5076656;28;20037;-72
2022/03/19 12:16:08;;;;;;;3.70;3.15;;;22.20;48.70;;;;;;5076744;28;20052;-70
2022/03/19 12:18:46;;;;;;;4.10;2.88;;;22.30;48.40;;;;;;5075404;28;20519;-70
2022/03/19 12:21:17;;;;;;;2.88;2.33;;;22.30;48.60;;;;;;5076336;28;20060;-72
2022/03/19 12:24:06;;;;;;;4.72;2.50;;;22.30;48.50;;;;;;5076539;28;20055;-70
2022/03/19 12:26:40;;;;;;;2.70;2.17;;;22.30;48.80;;;;;;5076380;28;20071;-70
2022/03/19 12:29:08;;;;;;;2.95;2.60;;;22.40;48.70;;;;;;5076293;28;20052;-71
2022/03/19 12:31:48;;;;;;;3.88;2.15;;;22.60;48.80;;;;;;5076240;28;20045;-70
2022/03/19 12:34:23;;;;;;;5.35;2.92;;;22.70;51.90;;;;;;5076011;28;20052;-71
2022/03/19 12:36:51;;;;;;;3.22;2.63;;;22.70;52.30;;;;;;5076008;28;20033;-71
2022/03/19 12:39:18;;;;;;;5.07;2.67;;;22.60;50.80;;;;;;5075210;28;20045;-71
2022/03/19 12:41:44;;;;;;;6.05;3.03;;;22.60;50.30;;;;;;5074558;28;20036;-70
2022/03/19 12:44:25;;;;;;;7.15;3.28;;;22.60;50.10;;;;;;5075252;28;20032;-70
2022/03/19 12:47:01;;;;;;;4.03;3.00;;;22.50;49.80;;;;;;5075465;28;20056;-70
2022/03/19 12:49:28;;;;;;;9.60;3.75;;;22.50;50.00;;;;;;5076300;28;20089;-71
2022/03/19 12:51:55;;;;;;;6.50;3.17;;;22.40;49.90;;;;;;5075228;28;20060;-70
2022/03/19 12:54:30;;;;;;;4.53;2.50;;;22.30;50.20;;;;;;5057540;28;20043;-70
2022/03/19 12:57:06;;;;;;;5.20;2.85;;;22.30;50.50;;;;;;5075169;28;20151;-70
2022/03/19 12:59:32;;;;;;;6.57;2.95;;;22.20;50.30;;;;;;5075087;28;20033;-71
2022/03/19 13:01:59;;;;;;;5.03;3.08;;;22.20;50.20;;;;;;5074855;28;20053;-71